sensor_id;sensor_type;location;lat;lon;timestamp;P1;durP1;ratioP1;P2;durP2;ratioP2
21777;SDS011;11050;52.222;20.916;2023-02-05T00:02:20;15.37;;;6.93;;
21777;SDS011;11050;52.222;20.916;2023-02-05T00:04:46;16.13;;;6.93;;
21777;SDS011;11050;52.222;20.916;2023-02-05T00:07:12;18.57;;;6.47;;
21777;SDS011;11050;52.222;20.916;2023-02-05T00:09:37;17.00;;;7.20;;
21777;SDS011;11050;52.222;20.916;2023-02-05T00:12:04;15.07;;;6.77;;
21777;SDS011;11050;52.222;20.916;2023-02-05T00:14:31;16.77;;;6.77;;
21777;SDS011;11050;52.222;20.916;2023-02-05T00:16:57;15.07;;;6.63;;
21777;SDS011;11050;52.222;20.916;2023-02-05T00:19:23;14.73;;;7.13;;
21777;SDS011;11050;52.222;20.916;2023-02-05T00:21:48;14.77;;;6.53;;
21777;SDS011;11050;52.222;20.916;2023-02-05T00:24:14;20.50;;;7.60;;
21777;SDS011;11050;52.222;20.916;2023-02-05T00:26:40;15.80;;;7.30;;
21777;SDS011;11050;52.222;20.916;2023-02-05T00:29:06;16.33;;;7.37;;
21777;SDS011;11050;52.222;20.916;2023-02-05T00:31:31;12.90;;;6.27;;
21777;SDS011;11050;52.222;20.916;2023-02-05T00:33:57;15.03;;;6.70;;
21777;SDS011;11050;52.222;20.916;2023-02-05T00:36:23;15.27;;;6.93;;
21777;SDS011;11050;52.222;20.916;2023-02-05T00:38:50;15.07;;;7.43;;
21777;SDS011;11050;52.222;20.916;2023-02-05T00:41:16;13.50;;;6.67;;
21777;SDS011;11050;52.222;20.916;2023-02-05T00:43:42;14.43;;;6.73;;
21777;SDS011;11050;52.222;20.916;2023-02-05T00:46:09;17.50;;;6.77;;
21777;SDS011;11050;52.222;20.916;2023-02-05T00:48:37;17.63;;;7.07;;
21777;SDS011;11050;52.222;20.916;2023-02-05T00:51:04;16.00;;;6.67;;
21777;SDS011;11050;52.222;20.916;2023-02-05T00:53:30;16.67;;;6.53;;
21777;SDS011;11050;52.222;20.916;2023-02-05T00:55:56;15.03;;;6.27;;
21777;SDS011;11050;52.222;20.916;2023-02-05T00:58:22;14.83;;;6.97;;
21777;SDS011;11050;52.222;20.916;2023-02-05T01:00:51;14.47;;;6.60;;
21777;SDS011;11050;52.222;20.916;2023-02-05T01:03:17;15.57;;;6.80;;
21777;SDS011;11050;52.222;20.916;2023-02-05T01:05:44;13.40;;;5.67;;
21777;SDS011;11050;52.222;20.916;2023-02-05T01:08:10;18.70;;;6.20;;
21777;SDS011;11050;52.222;20.916;2023-02-05T01:10:37;15.00;;;5.70;;
21777;SDS011;11050;52.222;20.916;2023-02-05T01:13:07;13.63;;;6.77;;
21777;SDS011;11050;52.222;20.916;2023-02-05T01:15:33;14.57;;;6.47;;
21777;SDS011;11050;52.222;20.916;2023-02-05T01:17:59;15.90;;;6.13;;
21777;SDS011;11050;52.222;20.916;2023-02-05T01:20:25;12.23;;;5.57;;
21777;SDS011;11050;52.222;20.916;2023-02-05T01:22:51;14.47;;;6.03;;
21777;SDS011;11050;52.222;20.916;2023-02-05T01:25:17;12.50;;;5.93;;
21777;SDS011;11050;52.222;20.916;2023-02-05T01:27:43;14.73;;;6.13;;
21777;SDS011;11050;52.222;20.916;2023-02-05T01:30:09;11.10;;;5.20;;
21777;SDS011;11050;52.222;20.916;2023-02-05T01:32:35;11.17;;;4.60;;
21777;SDS011;11050;52.222;20.916;2023-02-05T01:35:03;11.17;;;5.00;;
21777;SDS011;11050;52.222;20.916;2023-02-05T01:37:29;9.17;;;5.07;;
21777;SDS011;11050;52.222;20.916;2023-02-05T01:39:54;10.37;;;4.60;;
21777;SDS011;11050;52.222;20.916;2023-02-05T01:42:27;12.83;;;5.47;;
21777;SDS011;11050;52.222;20.916;2023-02-05T01:48:14;13.20;;;5.43;;
21777;SDS011;11050;52.222;20.916;2023-02-05T01:50:47;10.87;;;5.23;;
21777;SDS011;11050;52.222;20.916;2023-02-05T01:53:21;10.30;;;5.20;;
21777;SDS011;11050;52.222;20.916;2023-02-05T01:56:13;11.03;;;4.70;;
21777;SDS011;11050;52.222;20.916;2023-02-05T01:58:45;12.33;;;5.20;;
21777;SDS011;11050;52.222;20.916;2023-02-05T02:01:34;13.57;;;4.20;;
21777;SDS011;11050;52.222;20.916;2023-02-05T02:04:03;12.43;;;5.30;;
21777;SDS011;11050;52.222;20.916;2023-02-05T02:06:32;10.37;;;5.10;;
21777;SDS011;11050;52.222;20.916;2023-02-05T02:09:00;11.70;;;4.33;;
21777;SDS011;11050;52.222;20.916;2023-02-05T02:11:30;12.37;;;5.30;;
21777;SDS011;11050;52.222;20.916;2023-02-05T02:14:02;12.07;;;5.20;;
21777;SDS011;11050;52.222;20.916;2023-02-05T02:16:31;9.77;;;5.17;;
21777;SDS011;11050;52.222;20.916;2023-02-05T02:19:01;14.03;;;5.80;;
21777;SDS011;11050;52.222;20.916;2023-02-05T02:33:19;11.73;;;5.03;;
21777;SDS011;11050;52.222;20.916;2023-02-05T02:36:11;9.63;;;4.00;;
21777;SDS011;11050;52.222;20.916;2023-02-05T02:41:30;12.33;;;4.77;;
21777;SDS011;11050;52.222;20.916;2023-02-05T02:44:41;9.60;;;4.43;;
21777;SDS011;11050;52.222;20.916;2023-02-05T02:47:21;10.37;;;4.80;;
21777;SDS011;11050;52.222;20.916;2023-02-05T02:49:58;10.77;;;5.07;;
21777;SDS011;11050;52.222;20.916;2023-02-05T02:52:32;9.43;;;4.50;;
21777;SDS011;11050;52.222;20.916;2023-02-05T02:55:04;10.10;;;4.47;;
21777;SDS011;11050;52.222;20.916;2023-02-05T02:57:36;11.80;;;4.93;;
21777;SDS011;11050;52.222;20.916;2023-02-05T03:00:11;8.70;;;4.00;;
21777;SDS011;11050;52.222;20.916;2023-02-05T03:02:44;8.93;;;4.13;;
21777;SDS011;11050;52.222;20.916;2023-02-05T03:05:15;8.93;;;4.60;;
21777;SDS011;11050;52.222;20.916;2023-02-05T03:07:53;9.47;;;3.90;;
21777;SDS011;11050;52.222;20.916;2023-02-05T03:10:38;9.53;;;4.57;;
21777;SDS011;11050;52.222;20.916;2023-02-05T03:13:11;9.77;;;4.50;;
21777;SDS011;11050;52.222;20.916;2023-02-05T03:15:38;10.93;;;4.40;;
21777;SDS011;11050;52.222;20.916;2023-02-05T03:18:08;10.97;;;4.80;;
21777;SDS011;11050;52.222;20.916;2023-02-05T03:20:37;11.03;;;4.80;;
21777;SDS011;11050;52.222;20.916;2023-02-05T03:23:13;9.17;;;4.00;;
21777;SDS011;11050;52.222;20.916;2023-02-05T03:25:39;10.30;;;4.37;;
21777;SDS011;11050;52.222;20.916;2023-02-05T03:28:05;8.93;;;4.27;;
21777;SDS011;11050;52.222;20.916;2023-02-05T03:33:27;9.77;;;4.03;;
21777;SDS011;11050;52.222;20.916;2023-02-05T03:36:31;9.37;;;4.40;;
21777;SDS011;11050;52.222;20.916;2023-02-05T03:48:11;10.93;;;4.70;;
21777;SDS011;11050;52.222;20.916;2023-02-05T03:53:36;6.77;;;3.90;;
21777;SDS011;11050;52.222;20.916;2023-02-05T03:56:27;12.00;;;4.50;;
21777;SDS011;11050;52.222;20.916;2023-02-05T03:59:04;10.27;;;4.87;;
21777;SDS011;11050;52.222;20.916;2023-02-05T04:01:32;10.30;;;4.70;;
21777;SDS011;11050;52.222;20.916;2023-02-05T04:03:58;8.47;;;3.70;;
21777;SDS011;11050;52.222;20.916;2023-02-05T04:06:24;10.13;;;4.50;;
21777;SDS011;11050;52.222;20.916;2023-02-05T04:08:50;9.73;;;4.67;;
21777;SDS011;11050;52.222;20.916;2023-02-05T04:11:16;8.03;;;4.10;;
21777;SDS011;11050;52.222;20.916;2023-02-05T04:13:42;9.90;;;4.53;;
21777;SDS011;11050;52.222;20.916;2023-02-05T04:16:07;9.83;;;4.50;;
21777;SDS011;11050;52.222;20.916;2023-02-05T04:18:33;9.40;;;4.10;;
21777;SDS011;11050;52.222;20.916;2023-02-05T04:20:59;11.53;;;4.77;;
21777;SDS011;11050;52.222;20.916;2023-02-05T04:23:25;9.73;;;4.27;;
21777;SDS011;11050;52.222;20.916;2023-02-05T04:25:52;10.37;;;4.27;;
21777;SDS011;11050;52.222;20.916;2023-02-05T04:28:19;12.67;;;4.43;;
21777;SDS011;11050;52.222;20.916;2023-02-05T04:30:45;9.90;;;3.90;;
21777;SDS011;11050;52.222;20.916;2023-02-05T04:33:11;7.40;;;3.90;;
21777;SDS011;11050;52.222;20.916;2023-02-05T04:35:36;9.13;;;4.37;;
21777;SDS011;11050;52.222;20.916;2023-02-05T04:38:02;7.77;;;3.97;;
21777;SDS011;11050;52.222;20.916;2023-02-05T04:40:28;10.97;;;4.93;;
21777;SDS011;11050;52.222;20.916;2023-02-05T04:42:54;8.67;;;4.23;;
21777;SDS011;11050;52.222;20.916;2023-02-05T04:45:20;8.03;;;3.97;;
21777;SDS011;11050;52.222;20.916;2023-02-05T04:47:46;9.77;;;4.47;;
21777;SDS011;11050;52.222;20.916;2023-02-05T04:50:12;9.87;;;4.27;;
21777;SDS011;11050;52.222;20.916;2023-02-05T04:52:38;10.33;;;4.20;;
21777;SDS011;11050;52.222;20.916;2023-02-05T04:55:04;8.53;;;4.47;;
21777;SDS011;11050;52.222;20.916;2023-02-05T04:57:31;11.17;;;4.27;;
21777;SDS011;11050;52.222;20.916;2023-02-05T04:59:56;10.27;;;4.37;;
21777;SDS011;11050;52.222;20.916;2023-02-05T05:02:22;8.57;;;4.27;;
21777;SDS011;11050;52.222;20.916;2023-02-05T05:04:48;8.87;;;4.20;;
21777;SDS011;11050;52.222;20.916;2023-02-05T05:07:14;8.27;;;4.37;;
21777;SDS011;11050;52.222;20.916;2023-02-05T05:09:40;8.43;;;4.20;;
21777;SDS011;11050;52.222;20.916;2023-02-05T05:12:06;12.33;;;4.30;;
21777;SDS011;11050;52.222;20.916;2023-02-05T05:14:32;7.37;;;4.00;;
21777;SDS011;11050;52.222;20.916;2023-02-05T05:16:58;8.20;;;3.93;;
21777;SDS011;11050;52.222;20.916;2023-02-05T05:19:24;8.77;;;4.57;;
21777;SDS011;11050;52.222;20.916;2023-02-05T05:21:50;7.43;;;3.80;;
21777;SDS011;11050;52.222;20.916;2023-02-05T05:24:15;8.67;;;3.93;;
21777;SDS011;11050;52.222;20.916;2023-02-05T05:26:41;6.27;;;3.87;;
21777;SDS011;11050;52.222;20.916;2023-02-05T05:29:12;9.43;;;4.40;;
21777;SDS011;11050;52.222;20.916;2023-02-05T05:31:38;6.90;;;3.80;;
21777;SDS011;11050;52.222;20.916;2023-02-05T05:34:04;9.53;;;4.67;;
21777;SDS011;11050;52.222;20.916;2023-02-05T05:36:30;8.13;;;4.20;;
21777;SDS011;11050;52.222;20.916;2023-02-05T05:38:56;10.43;;;4.57;;
21777;SDS011;11050;52.222;20.916;2023-02-05T05:41:42;8.50;;;4.73;;
21777;SDS011;11050;52.222;20.916;2023-02-05T05:44:26;8.30;;;4.20;;
21777;SDS011;11050;52.222;20.916;2023-02-05T05:46:52;10.67;;;4.77;;
21777;SDS011;11050;52.222;20.916;2023-02-05T05:49:18;9.63;;;5.00;;
21777;SDS011;11050;52.222;20.916;2023-02-05T05:51:44;9.90;;;4.50;;
21777;SDS011;11050;52.222;20.916;2023-02-05T05:54:09;8.10;;;4.03;;
21777;SDS011;11050;52.222;20.916;2023-02-05T05:56:35;8.77;;;4.23;;
21777;SDS011;11050;52.222;20.916;2023-02-05T05:59:02;10.90;;;4.40;;
21777;SDS011;11050;52.222;20.916;2023-02-05T06:01:28;9.20;;;4.53;;
21777;SDS011;11050;52.222;20.916;2023-02-05T06:03:53;9.20;;;3.80;;
21777;SDS011;11050;52.222;20.916;2023-02-05T06:06:19;9.20;;;4.33;;
21777;SDS011;11050;52.222;20.916;2023-02-05T06:08:45;11.03;;;4.47;;
21777;SDS011;11050;52.222;20.916;2023-02-05T06:11:11;8.97;;;4.20;;
21777;SDS011;11050;52.222;20.916;2023-02-05T06:13:37;8.97;;;3.93;;
21777;SDS011;11050;52.222;20.916;2023-02-05T06:16:04;8.77;;;4.33;;
21777;SDS011;11050;52.222;20.916;2023-02-05T06:18:30;8.43;;;4.30;;
21777;SDS011;11050;52.222;20.916;2023-02-05T06:20:56;8.37;;;4.30;;
21777;SDS011;11050;52.222;20.916;2023-02-05T06:23:21;9.73;;;4.67;;
21777;SDS011;11050;52.222;20.916;2023-02-05T06:25:47;9.23;;;4.20;;
21777;SDS011;11050;52.222;20.916;2023-02-05T06:28:13;8.47;;;4.13;;
21777;SDS011;11050;52.222;20.916;2023-02-05T06:30:38;7.13;;;4.13;;
21777;SDS011;11050;52.222;20.916;2023-02-05T06:33:04;11.47;;;4.50;;
21777;SDS011;11050;52.222;20.916;2023-02-05T06:35:30;9.80;;;4.70;;
21777;SDS011;11050;52.222;20.916;2023-02-05T06:37:56;9.07;;;4.13;;
21777;SDS011;11050;52.222;20.916;2023-02-05T06:40:21;8.07;;;4.13;;
21777;SDS011;11050;52.222;20.916;2023-02-05T06:42:50;12.30;;;5.43;;
21777;SDS011;11050;52.222;20.916;2023-02-05T06:45:17;10.63;;;4.73;;
21777;SDS011;11050;52.222;20.916;2023-02-05T06:47:43;8.33;;;3.90;;
21777;SDS011;11050;52.222;20.916;2023-02-05T06:50:09;8.60;;;4.47;;
21777;SDS011;11050;52.222;20.916;2023-02-05T06:52:35;10.03;;;4.67;;
21777;SDS011;11050;52.222;20.916;2023-02-05T06:55:01;9.97;;;4.70;;
21777;SDS011;11050;52.222;20.916;2023-02-05T06:57:28;8.17;;;4.60;;
21777;SDS011;11050;52.222;20.916;2023-02-05T06:59:55;10.23;;;4.70;;
21777;SDS011;11050;52.222;20.916;2023-02-05T07:02:22;12.23;;;4.30;;
21777;SDS011;11050;52.222;20.916;2023-02-05T07:04:48;11.10;;;4.60;;
21777;SDS011;11050;52.222;20.916;2023-02-05T07:07:13;8.47;;;5.03;;
21777;SDS011;11050;52.222;20.916;2023-02-05T07:09:40;7.40;;;4.50;;
21777;SDS011;11050;52.222;20.916;2023-02-05T07:12:07;8.97;;;4.90;;
21777;SDS011;11050;52.222;20.916;2023-02-05T07:14:39;6.73;;;3.77;;
21777;SDS011;11050;52.222;20.916;2023-02-05T07:17:05;9.47;;;4.67;;
21777;SDS011;11050;52.222;20.916;2023-02-05T07:19:32;9.27;;;4.70;;
21777;SDS011;11050;52.222;20.916;2023-02-05T07:21:59;8.03;;;4.17;;
21777;SDS011;11050;52.222;20.916;2023-02-05T07:24:25;9.90;;;4.27;;
21777;SDS011;11050;52.222;20.916;2023-02-05T07:26:51;7.03;;;4.33;;
21777;SDS011;11050;52.222;20.916;2023-02-05T07:29:16;7.77;;;4.57;;
21777;SDS011;11050;52.222;20.916;2023-02-05T07:31:42;7.90;;;4.30;;
21777;SDS011;11050;52.222;20.916;2023-02-05T07:34:08;7.17;;;4.50;;
21777;SDS011;11050;52.222;20.916;2023-02-05T07:36:33;7.80;;;4.27;;
21777;SDS011;11050;52.222;20.916;2023-02-05T07:38:59;10.30;;;4.40;;
21777;SDS011;11050;52.222;20.916;2023-02-05T07:41:25;9.53;;;4.93;;
21777;SDS011;11050;52.222;20.916;2023-02-05T07:43:51;9.37;;;5.00;;
21777;SDS011;11050;52.222;20.916;2023-02-05T07:46:19;8.73;;;4.60;;
21777;SDS011;11050;52.222;20.916;2023-02-05T07:48:46;7.93;;;4.60;;
21777;SDS011;11050;52.222;20.916;2023-02-05T07:51:16;9.43;;;5.00;;
21777;SDS011;11050;52.222;20.916;2023-02-05T07:53:46;9.60;;;4.70;;
21777;SDS011;11050;52.222;20.916;2023-02-05T07:56:12;10.17;;;5.27;;
21777;SDS011;11050;52.222;20.916;2023-02-05T07:58:39;11.30;;;5.33;;
21777;SDS011;11050;52.222;20.916;2023-02-05T08:01:05;10.00;;;5.13;;
21777;SDS011;11050;52.222;20.916;2023-02-05T08:03:31;11.17;;;4.77;;
21777;SDS011;11050;52.222;20.916;2023-02-05T08:05:57;9.60;;;4.63;;
21777;SDS011;11050;52.222;20.916;2023-02-05T08:08:23;8.67;;;4.47;;
21777;SDS011;11050;52.222;20.916;2023-02-05T08:10:59;10.00;;;4.90;;
21777;SDS011;11050;52.222;20.916;2023-02-05T08:13:29;10.33;;;3.90;;
21777;SDS011;11050;52.222;20.916;2023-02-05T08:15:55;9.33;;;4.60;;
21777;SDS011;11050;52.222;20.916;2023-02-05T08:18:22;8.57;;;4.40;;
21777;SDS011;11050;52.222;20.916;2023-02-05T08:20:51;9.80;;;4.67;;
21777;SDS011;11050;52.222;20.916;2023-02-05T08:23:19;10.07;;;4.93;;
21777;SDS011;11050;52.222;20.916;2023-02-05T08:25:45;9.10;;;4.73;;
21777;SDS011;11050;52.222;20.916;2023-02-05T08:28:11;11.07;;;5.03;;
21777;SDS011;11050;52.222;20.916;2023-02-05T08:30:38;10.60;;;4.93;;
21777;SDS011;11050;52.222;20.916;2023-02-05T08:33:04;7.87;;;4.77;;
21777;SDS011;11050;52.222;20.916;2023-02-05T08:35:30;8.07;;;4.70;;
21777;SDS011;11050;52.222;20.916;2023-02-05T08:37:56;8.97;;;5.03;;
21777;SDS011;11050;52.222;20.916;2023-02-05T08:40:22;9.47;;;5.00;;
21777;SDS011;11050;52.222;20.916;2023-02-05T08:42:48;7.20;;;4.13;;
21777;SDS011;11050;52.222;20.916;2023-02-05T08:45:16;9.83;;;5.17;;
21777;SDS011;11050;52.222;20.916;2023-02-05T08:47:44;8.87;;;4.47;;
21777;SDS011;11050;52.222;20.916;2023-02-05T08:50:09;11.83;;;4.77;;
21777;SDS011;11050;52.222;20.916;2023-02-05T08:52:35;9.47;;;4.97;;
21777;SDS011;11050;52.222;20.916;2023-02-05T08:55:01;9.93;;;5.17;;
21777;SDS011;11050;52.222;20.916;2023-02-05T08:57:28;9.13;;;5.40;;
21777;SDS011;11050;52.222;20.916;2023-02-05T08:59:55;8.20;;;4.73;;
21777;SDS011;11050;52.222;20.916;2023-02-05T09:02:21;10.20;;;4.53;;
21777;SDS011;11050;52.222;20.916;2023-02-05T09:04:47;9.77;;;5.30;;
21777;SDS011;11050;52.222;20.916;2023-02-05T09:07:13;9.00;;;4.73;;
21777;SDS011;11050;52.222;20.916;2023-02-05T09:09:40;11.63;;;5.03;;
21777;SDS011;11050;52.222;20.916;2023-02-05T09:12:06;9.23;;;5.20;;
21777;SDS011;11050;52.222;20.916;2023-02-05T09:14:34;8.77;;;5.00;;
21777;SDS011;11050;52.222;20.916;2023-02-05T09:17:06;7.50;;;5.03;;
21777;SDS011;11050;52.222;20.916;2023-02-05T09:19:34;8.17;;;4.50;;
21777;SDS011;11050;52.222;20.916;2023-02-05T09:22:02;10.83;;;5.33;;
21777;SDS011;11050;52.222;20.916;2023-02-05T09:24:29;11.03;;;5.33;;
21777;SDS011;11050;52.222;20.916;2023-02-05T09:26:55;10.10;;;5.13;;
21777;SDS011;11050;52.222;20.916;2023-02-05T09:29:21;11.40;;;5.30;;
21777;SDS011;11050;52.222;20.916;2023-02-05T09:31:47;11.33;;;5.43;;
21777;SDS011;11050;52.222;20.916;2023-02-05T09:34:13;9.17;;;4.60;;
21777;SDS011;11050;52.222;20.916;2023-02-05T09:36:39;9.97;;;4.40;;
21777;SDS011;11050;52.222;20.916;2023-02-05T09:39:06;8.47;;;4.57;;
21777;SDS011;11050;52.222;20.916;2023-02-05T09:41:35;7.37;;;4.13;;
21777;SDS011;11050;52.222;20.916;2023-02-05T09:44:42;8.27;;;4.20;;
21777;SDS011;11050;52.222;20.916;2023-02-05T09:47:53;9.33;;;4.80;;
21777;SDS011;11050;52.222;20.916;2023-02-05T09:50:40;7.27;;;4.27;;
21777;SDS011;11050;52.222;20.916;2023-02-05T09:53:09;7.77;;;4.40;;
21777;SDS011;11050;52.222;20.916;2023-02-05T09:55:42;9.00;;;4.17;;
21777;SDS011;11050;52.222;20.916;2023-02-05T09:58:12;6.60;;;3.77;;
21777;SDS011;11050;52.222;20.916;2023-02-05T10:09:09;7.60;;;4.10;;
21777;SDS011;11050;52.222;20.916;2023-02-05T10:15:16;8.53;;;4.13;;
21777;SDS011;11050;52.222;20.916;2023-02-05T10:32:28;10.97;;;5.30;;
21777;SDS011;11050;52.222;20.916;2023-02-05T10:37:16;7.50;;;4.70;;
21777;SDS011;11050;52.222;20.916;2023-02-05T10:39:46;10.90;;;5.60;;
21777;SDS011;11050;52.222;20.916;2023-02-05T10:47:41;11.67;;;5.33;;
21777;SDS011;11050;52.222;20.916;2023-02-05T10:50:13;11.17;;;4.53;;
21777;SDS011;11050;52.222;20.916;2023-02-05T10:52:45;11.07;;;4.60;;
21777;SDS011;11050;52.222;20.916;2023-02-05T10:55:11;9.17;;;4.13;;
21777;SDS011;11050;52.222;20.916;2023-02-05T10:57:38;8.90;;;4.23;;
21777;SDS011;11050;52.222;20.916;2023-02-05T11:00:05;9.13;;;4.43;;
21777;SDS011;11050;52.222;20.916;2023-02-05T11:02:52;9.57;;;4.13;;
21777;SDS011;11050;52.222;20.916;2023-02-05T11:05:29;9.20;;;4.50;;
21777;SDS011;11050;52.222;20.916;2023-02-05T11:08:02;8.50;;;4.33;;
21777;SDS011;11050;52.222;20.916;2023-02-05T11:10:29;7.63;;;4.50;;
21777;SDS011;11050;52.222;20.916;2023-02-05T11:16:03;8.23;;;5.00;;
21777;SDS011;11050;52.222;20.916;2023-02-05T11:18:40;9.40;;;5.57;;
21777;SDS011;11050;52.222;20.916;2023-02-05T11:21:10;10.83;;;5.67;;
21777;SDS011;11050;52.222;20.916;2023-02-05T11:23:37;11.53;;;5.83;;
21777;SDS011;11050;52.222;20.916;2023-02-05T11:26:19;10.30;;;5.30;;
21777;SDS011;11050;52.222;20.916;2023-02-05T11:28:49;10.17;;;5.03;;
21777;SDS011;11050;52.222;20.916;2023-02-05T11:31:19;10.07;;;5.47;;
21777;SDS011;11050;52.222;20.916;2023-02-05T11:36:51;10.83;;;5.37;;
21777;SDS011;11050;52.222;20.916;2023-02-05T11:39:31;10.23;;;4.83;;
21777;SDS011;11050;52.222;20.916;2023-02-05T11:44:49;10.47;;;5.23;;
21777;SDS011;11050;52.222;20.916;2023-02-05T11:47:29;10.80;;;5.37;;
21777;SDS011;11050;52.222;20.916;2023-02-05T11:49:59;10.33;;;5.20;;
21777;SDS011;11050;52.222;20.916;2023-02-05T11:52:29;8.07;;;4.70;;
21777;SDS011;11050;52.222;20.916;2023-02-05T11:55:01;11.67;;;5.53;;
21777;SDS011;11050;52.222;20.916;2023-02-05T11:57:33;9.73;;;4.97;;
21777;SDS011;11050;52.222;20.916;2023-02-05T12:02:39;9.67;;;5.10;;
21777;SDS011;11050;52.222;20.916;2023-02-05T12:05:16;10.40;;;4.87;;
21777;SDS011;11050;52.222;20.916;2023-02-05T12:07:52;8.03;;;4.40;;
21777;SDS011;11050;52.222;20.916;2023-02-05T12:41:57;6.90;;;3.77;;
21777;SDS011;11050;52.222;20.916;2023-02-05T12:44:39;8.13;;;4.40;;
21777;SDS011;11050;52.222;20.916;2023-02-05T12:53:28;7.30;;;4.07;;
21777;SDS011;11050;52.222;20.916;2023-02-05T12:59:13;7.30;;;4.40;;
21777;SDS011;11050;52.222;20.916;2023-02-05T13:04:49;7.20;;;4.30;;
21777;SDS011;11050;52.222;20.916;2023-02-05T13:07:37;8.67;;;4.40;;
21777;SDS011;11050;52.222;20.916;2023-02-05T13:13:33;8.67;;;4.53;;
21777;SDS011;11050;52.222;20.916;2023-02-05T13:16:13;7.57;;;3.87;;
21777;SDS011;11050;52.222;20.916;2023-02-05T13:18:53;8.73;;;4.57;;
21777;SDS011;11050;52.222;20.916;2023-02-05T13:21:29;6.10;;;3.53;;
21777;SDS011;11050;52.222;20.916;2023-02-05T13:27:27;5.80;;;3.37;;
21777;SDS011;11050;52.222;20.916;2023-02-05T13:30:18;5.33;;;3.67;;
21777;SDS011;11050;52.222;20.916;2023-02-05T13:32:52;4.60;;;2.83;;
21777;SDS011;11050;52.222;20.916;2023-02-05T13:35:22;5.77;;;3.20;;
21777;SDS011;11050;52.222;20.916;2023-02-05T13:44:03;6.27;;;3.33;;
21777;SDS011;11050;52.222;20.916;2023-02-05T13:46:56;6.47;;;3.40;;
21777;SDS011;11050;52.222;20.916;2023-02-05T14:00:54;6.23;;;3.10;;
21777;SDS011;11050;52.222;20.916;2023-02-05T14:03:29;7.33;;;3.37;;
21777;SDS011;11050;52.222;20.916;2023-02-05T14:09:36;6.63;;;3.17;;
21777;SDS011;11050;52.222;20.916;2023-02-05T14:19:53;9.37;;;4.10;;
21777;SDS011;11050;52.222;20.916;2023-02-05T14:30:45;8.53;;;3.50;;
21777;SDS011;11050;52.222;20.916;2023-02-05T14:33:24;6.43;;;3.13;;
21777;SDS011;11050;52.222;20.916;2023-02-05T14:41:15;6.20;;;3.07;;
21777;SDS011;11050;52.222;20.916;2023-02-05T14:43:59;5.43;;;2.67;;
21777;SDS011;11050;52.222;20.916;2023-02-05T14:46:37;6.07;;;2.90;;
21777;SDS011;11050;52.222;20.916;2023-02-05T14:49:22;4.57;;;2.90;;
21777;SDS011;11050;52.222;20.916;2023-02-05T14:51:59;9.50;;;4.03;;
21777;SDS011;11050;52.222;20.916;2023-02-05T14:54:30;6.80;;;3.40;;
21777;SDS011;11050;52.222;20.916;2023-02-05T14:57:38;6.87;;;3.70;;
21777;SDS011;11050;52.222;20.916;2023-02-05T15:00:23;5.43;;;3.27;;
21777;SDS011;11050;52.222;20.916;2023-02-05T15:13:38;4.83;;;2.60;;
21777;SDS011;11050;52.222;20.916;2023-02-05T15:16:06;3.57;;;2.60;;
21777;SDS011;11050;52.222;20.916;2023-02-05T15:18:32;3.83;;;2.43;;
21777;SDS011;11050;52.222;20.916;2023-02-05T15:21:09;5.93;;;3.03;;
21777;SDS011;11050;52.222;20.916;2023-02-05T15:23:48;5.50;;;3.47;;
21777;SDS011;11050;52.222;20.916;2023-02-05T15:26:43;6.37;;;3.37;;
21777;SDS011;11050;52.222;20.916;2023-02-05T15:29:26;6.47;;;3.50;;
21777;SDS011;11050;52.222;20.916;2023-02-05T15:32:04;6.00;;;3.70;;
21777;SDS011;11050;52.222;20.916;2023-02-05T15:34:44;6.30;;;3.70;;
21777;SDS011;11050;52.222;20.916;2023-02-05T15:37:42;6.40;;;3.47;;
21777;SDS011;11050;52.222;20.916;2023-02-05T15:42:58;7.23;;;3.90;;
21777;SDS011;11050;52.222;20.916;2023-02-05T15:45:33;11.77;;;5.63;;
21777;SDS011;11050;52.222;20.916;2023-02-05T15:50:56;7.87;;;4.20;;
21777;SDS011;11050;52.222;20.916;2023-02-05T15:56:47;8.10;;;4.00;;
21777;SDS011;11050;52.222;20.916;2023-02-05T15:58:51;8.43;;;3.80;;
21777;SDS011;11050;52.222;20.916;2023-02-05T16:01:23;7.07;;;3.33;;
21777;SDS011;11050;52.222;20.916;2023-02-05T16:03:52;6.47;;;3.43;;
21777;SDS011;11050;52.222;20.916;2023-02-05T16:06:18;6.93;;;4.03;;
21777;SDS011;11050;52.222;20.916;2023-02-05T16:08:48;8.83;;;4.30;;
21777;SDS011;11050;52.222;20.916;2023-02-05T16:14:03;9.33;;;4.20;;
21777;SDS011;11050;52.222;20.916;2023-02-05T16:16:43;9.77;;;3.97;;
21777;SDS011;11050;52.222;20.916;2023-02-05T16:19:28;8.70;;;4.00;;
21777;SDS011;11050;52.222;20.916;2023-02-05T16:22:16;8.00;;;4.20;;
21777;SDS011;11050;52.222;20.916;2023-02-05T16:28:22;9.97;;;4.37;;
21777;SDS011;11050;52.222;20.916;2023-02-05T16:31:19;7.83;;;4.27;;
21777;SDS011;11050;52.222;20.916;2023-02-05T16:36:23;7.10;;;4.07;;
21777;SDS011;11050;52.222;20.916;2023-02-05T16:38:57;8.00;;;4.03;;
21777;SDS011;11050;52.222;20.916;2023-02-05T16:41:30;9.50;;;4.80;;
21777;SDS011;11050;52.222;20.916;2023-02-05T16:44:04;12.27;;;4.40;;
21777;SDS011;11050;52.222;20.916;2023-02-05T16:46:53;9.57;;;3.90;;
21777;SDS011;11050;52.222;20.916;2023-02-05T16:49:29;7.00;;;3.40;;
21777;SDS011;11050;52.222;20.916;2023-02-05T16:51:55;8.50;;;3.47;;
21777;SDS011;11050;52.222;20.916;2023-02-05T16:54:39;7.83;;;3.90;;
21777;SDS011;11050;52.222;20.916;2023-02-05T16:57:07;12.20;;;5.30;;
21777;SDS011;11050;52.222;20.916;2023-02-05T17:02:23;9.97;;;4.80;;
21777;SDS011;11050;52.222;20.916;2023-02-05T17:05:05;8.70;;;5.20;;
21777;SDS011;11050;52.222;20.916;2023-02-05T17:08:03;10.63;;;6.07;;
21777;SDS011;11050;52.222;20.916;2023-02-05T17:10:49;14.67;;;7.63;;
21777;SDS011;11050;52.222;20.916;2023-02-05T17:13:25;14.80;;;7.50;;
21777;SDS011;11050;52.222;20.916;2023-02-05T17:19:04;40.13;;;15.37;;
21777;SDS011;11050;52.222;20.916;2023-02-05T17:21:46;23.60;;;10.37;;
21777;SDS011;11050;52.222;20.916;2023-02-05T17:24:32;27.13;;;13.00;;
21777;SDS011;11050;52.222;20.916;2023-02-05T17:26:58;41.00;;;18.23;;
21777;SDS011;11050;52.222;20.916;2023-02-05T17:29:23;27.30;;;11.63;;
21777;SDS011;11050;52.222;20.916;2023-02-05T17:31:50;21.17;;;9.13;;
21777;SDS011;11050;52.222;20.916;2023-02-05T17:34:15;18.93;;;8.90;;
21777;SDS011;11050;52.222;20.916;2023-02-05T17:36:41;35.87;;;18.57;;
21777;SDS011;11050;52.222;20.916;2023-02-05T17:39:07;27.63;;;11.50;;
21777;SDS011;11050;52.222;20.916;2023-02-05T17:41:34;20.77;;;10.07;;
21777;SDS011;11050;52.222;20.916;2023-02-05T17:44:21;17.47;;;8.07;;
21777;SDS011;11050;52.222;20.916;2023-02-05T17:46:47;19.93;;;9.10;;
21777;SDS011;11050;52.222;20.916;2023-02-05T17:49:13;21.07;;;9.37;;
21777;SDS011;11050;52.222;20.916;2023-02-05T17:51:39;20.47;;;10.37;;
21777;SDS011;11050;52.222;20.916;2023-02-05T17:54:11;21.97;;;10.90;;
21777;SDS011;11050;52.222;20.916;2023-02-05T17:56:38;24.27;;;10.97;;
21777;SDS011;11050;52.222;20.916;2023-02-05T17:59:09;21.60;;;9.70;;
21777;SDS011;11050;52.222;20.916;2023-02-05T18:01:42;25.03;;;12.17;;
21777;SDS011;11050;52.222;20.916;2023-02-05T18:04:08;22.13;;;9.93;;
21777;SDS011;11050;52.222;20.916;2023-02-05T18:06:36;22.80;;;10.00;;
21777;SDS011;11050;52.222;20.916;2023-02-05T18:09:03;24.43;;;10.77;;
21777;SDS011;11050;52.222;20.916;2023-02-05T18:11:29;32.60;;;13.20;;
21777;SDS011;11050;52.222;20.916;2023-02-05T18:13:55;70.80;;;31.80;;
21777;SDS011;11050;52.222;20.916;2023-02-05T18:16:21;51.27;;;22.90;;